Time;durP1;ratioP1;P1;durP2;ratioP2;P2;SDS_P1;SDS_P2;PMS_P1;PMS_P2;Temp;Humidity;BMP_temperature;BMP_pressure;BME280_temperature;BME280_humidity;BME280_pressure;Samples;Min_cycle;Max_cycle;Signal;HPM_P1;HPM_P2
2023/07/13 00:00:26;;;;;;;2.92;1.35;;;;;;;20.83;45.90;101353.16;5140979;27;20058;-61
2023/07/13 00:02:54;;;;;;;5.18;1.48;;;;;;;20.81;45.88;101353.41;5141810;28;20068;-61
2023/07/13 00:05:24;;;;;;;3.08;1.40;;;;;;;20.79;45.96;101361.09;5143683;27;20051;-61
2023/07/13 00:07:52;;;;;;;7.60;1.83;;;;;;;20.78;46.07;101360.28;5140750;28;20039;-62
2023/07/13 00:10:21;;;;;;;3.03;1.58;;;;;;;20.77;46.07;101346.91;5145245;27;20507;-61
2023/07/13 00:12:49;;;;;;;6.53;1.75;;;;;;;20.76;46.08;101348.00;5135462;28;20060;-61
2023/07/13 00:15:22;;;;;;;6.55;1.55;;;;;;;20.73;46.21;101346.66;5142180;27;20406;-62
2023/07/13 00:17:50;;;;;;;5.80;1.60;;;;;;;20.73;46.17;101354.84;5145208;27;20050;-61
2023/07/13 00:20:21;;;;;;;6.68;1.50;;;;;;;20.71;46.35;101362.50;5142158;27;20512;-61
2023/07/13 00:22:51;;;;;;;8.63;2.10;;;;;;;20.71;46.25;101358.94;5143753;27;20058;-61
2023/07/13 00:25:19;;;;;;;4.82;1.92;;;;;;;20.69;46.29;101353.75;5138816;27;20135;-60
2023/07/13 00:27:49;;;;;;;4.60;1.42;;;;;;;20.67;46.13;101353.22;5136829;28;20048;-61
2023/07/13 00:30:17;;;;;;;3.75;1.88;;;;;;;20.65;46.33;101349.94;5141988;27;20047;-61
2023/07/13 00:32:45;;;;;;;4.13;1.75;;;;;;;20.64;46.29;101342.84;5144900;27;20043;-61
2023/07/13 00:35:15;;;;;;;4.25;1.40;;;;;;;20.62;46.34;101353.22;5142863;27;20096;-61
2023/07/13 00:37:43;;;;;;;4.78;1.70;;;;;;;20.62;46.34;101346.94;5142144;27;20046;-60
2023/07/13 00:40:14;;;;;;;5.97;2.22;;;;;;;20.60;46.36;101360.88;5149396;27;20055;-61
2023/07/13 00:42:42;;;;;;;6.35;1.92;;;;;;;20.60;46.36;101349.13;5143166;27;20047;-61
2023/07/13 00:45:43;;;;;;;3.83;1.25;;;;;;;20.58;46.41;101360.34;5145943;27;20043;-61
2023/07/13 00:48:12;;;;;;;3.65;1.67;;;;;;;20.56;46.59;101365.25;5145380;27;20080;-61
2023/07/13 00:50:40;;;;;;;6.30;1.92;;;;;;;20.56;46.67;101367.16;5146400;27;20051;-61
2023/07/13 00:53:09;;;;;;;6.28;1.95;;;;;;;20.55;46.74;101371.81;5143153;27;20055;-61
2023/07/13 00:55:39;;;;;;;3.20;1.52;;;;;;;20.52;46.58;101364.16;5139736;27;20085;-61
2023/07/13 00:58:07;;;;;;;5.40;1.80;;;;;;;20.52;46.67;101368.81;5146595;27;20055;-61
2023/07/13 01:00:37;;;;;;;4.57;1.73;;;;;;;20.50;46.68;101363.63;5143785;27;20043;-61
2023/07/13 01:03:05;;;;;;;6.82;1.83;;;;;;;20.49;46.65;101359.25;5144755;27;20160;-60
2023/07/13 01:05:35;;;;;;;5.68;1.80;;;;;;;20.48;46.78;101360.34;5145058;27;20051;-60
2023/07/13 01:08:05;;;;;;;5.40;1.67;;;;;;;20.46;46.80;101354.34;5143472;27;20057;-60
2023/07/13 01:10:38;;;;;;;6.63;2.10;;;;;;;20.45;46.85;101360.91;5144890;27;20053;-61
2023/07/13 01:13:09;;;;;;;3.15;1.23;;;;;;;20.44;46.92;101368.28;5145452;27;20047;-60
2023/07/13 01:15:39;;;;;;;2.92;1.40;;;;;;;20.45;46.76;101371.81;5145425;27;20164;-61
2023/07/13 01:18:10;;;;;;;5.88;1.65;;;;;;;20.42;46.75;101372.38;5143939;27;20043;-61
2023/07/13 01:20:38;;;;;;;3.95;1.38;;;;;;;20.40;46.86;101366.38;5143532;27;20042;-61
2023/07/13 01:23:10;;;;;;;4.50;1.60;;;;;;;20.42;46.97;101375.09;5146812;27;20039;-61
2023/07/13 01:25:38;;;;;;;5.75;1.30;;;;;;;20.41;47.02;101382.47;5134748;27;20051;-61
2023/07/13 01:28:09;;;;;;;3.65;1.40;;;;;;;20.40;47.04;101371.84;5148070;27;20039;-61
2023/07/13 01:30:39;;;;;;;3.50;1.40;;;;;;;20.38;47.00;101363.91;5141389;27;20437;-61
2023/07/13 01:33:09;;;;;;;4.10;1.35;;;;;;;20.38;47.20;101363.91;5145113;27;20070;-61
2023/07/13 01:35:37;;;;;;;4.55;1.45;;;;;;;20.36;47.19;101368.81;5145721;27;20047;-61
2023/07/13 01:38:08;;;;;;;4.97;2.10;;;;;;;20.35;47.34;101366.34;5148152;27;20038;-62
2023/07/13 01:40:36;;;;;;;3.88;1.40;;;;;;;20.34;47.24;101370.16;5145652;27;20039;-61
2023/07/13 01:43:03;;;;;;;5.07;1.45;;;;;;;20.33;47.37;101376.72;5148384;27;20074;-60
2023/07/13 01:45:31;;;;;;;6.05;2.03;;;;;;;20.29;47.29;101370.16;5145651;27;20054;-61
2023/07/13 01:47:59;;;;;;;5.43;2.10;;;;;;;20.30;47.34;101374.53;5144062;27;20047;-60
2023/07/13 01:50:27;;;;;;;4.47;1.67;;;;;;;20.28;47.62;101372.09;5141319;27;20074;-60
2023/07/13 01:52:55;;;;;;;5.32;1.80;;;;;;;20.27;47.65;101373.16;5144864;27;20178;-61
2023/07/13 01:55:24;;;;;;;9.00;2.00;;;;;;;20.26;47.72;101377.00;5146339;27;20136;-61
2023/07/13 01:57:52;;;;;;;4.68;1.63;;;;;;;20.25;47.65;101378.09;5135705;27;20073;-60
2023/07/13 02:00:20;;;;;;;3.80;1.63;;;;;;;20.25;47.83;101380.00;5145642;27;20047;-60
2023/07/13 02:02:48;;;;;;;4.85;1.50;;;;;;;20.24;47.70;101379.19;5146259;27;20073;-60
2023/07/13 02:05:16;;;;;;;6.88;2.25;;;;;;;20.22;47.63;101383.28;5137090;27;20043;-61
2023/07/13 02:07:44;;;;;;;4.75;1.40;;;;;;;20.22;47.85;101380.53;5145595;27;20039;-61
2023/07/13 02:10:13;;;;;;;4.95;1.67;;;;;;;20.11;47.85;101375.09;5147599;27;20057;-61
2023/07/13 02:12:43;;;;;;;3.78;1.70;;;;;;;20.20;47.96;101388.19;5135191;27;20055;-61
2023/07/13 02:15:11;;;;;;;6.65;1.65;;;;;;;20.19;47.81;101389.28;5143970;27;20066;-61
2023/07/13 02:17:39;;;;;;;4.68;1.80;;;;;;;20.17;47.82;101389.56;5145302;27;20058;-61
2023/07/13 02:20:09;;;;;;;4.43;1.63;;;;;;;20.15;48.01;101389.81;5142926;27;20042;-61
2023/07/13 02:22:37;;;;;;;5.05;1.80;;;;;;;20.14;48.14;101387.38;5140152;27;20100;-61
2023/07/13 02:25:05;;;;;;;3.95;1.95;;;;;;;20.13;48.07;101383.00;5132000;27;20465;-61
2023/07/13 02:27:33;;;;;;;4.65;1.60;;;;;;;20.11;48.19;101386.00;5144822;27;20485;-60
2023/07/13 02:30:03;;;;;;;3.17;1.45;;;;;;;20.11;48.21;101387.91;5147001;27;20069;-60
2023/07/13 02:32:30;;;;;;;5.32;2.10;;;;;;;20.09;48.40;101384.63;5142015;27;20057;-61
2023/07/13 02:34:58;;;;;;;3.55;1.70;;;;;;;20.08;48.50;101386.53;5146665;27;20496;-60
2023/07/13 02:37:26;;;;;;;5.05;1.80;;;;;;;20.07;48.46;101389.53;5141309;27;20058;-61
2023/07/13 02:39:54;;;;;;;2.42;1.25;;;;;;;20.06;48.48;101388.72;5145638;27;20035;-60
2023/07/13 02:42:21;;;;;;;5.43;1.85;;;;;;;20.06;48.45;101387.91;5144284;27;20051;-60
2023/07/13 02:44:50;;;;;;;5.88;2.08;;;;;;;20.04;48.59;101387.34;5143412;27;20097;-60
2023/07/13 02:47:19;;;;;;;7.07;1.58;;;;;;;20.03;48.60;101388.44;5144278;27;20043;-60
2023/07/13 02:49:47;;;;;;;6.30;1.65;;;;;;;20.02;48.74;101384.91;5142582;27;20130;-62
2023/07/13 02:52:15;;;;;;;4.65;1.80;;;;;;;20.00;48.48;101384.34;5143500;27;20054;-61
2023/07/13 02:54:43;;;;;;;8.88;1.60;;;;;;;19.99;48.67;101385.44;5146139;27;20043;-60
2023/07/13 02:57:10;;;;;;;5.30;2.03;;;;;;;19.99;48.70;101381.91;5145246;27;20051;-60
2023/07/13 02:59:38;;;;;;;7.80;1.80;;;;;;;19.98;48.86;101385.72;5145020;27;20068;-60
2023/07/13 03:02:06;;;;;;;7.97;2.50;;;;;;;19.97;49.00;101390.34;5142456;27;20047;-60
2023/07/13 03:04:36;;;;;;;9.05;3.08;;;;;;;19.96;49.16;101376.97;5145932;27;20047;-60
2023/07/13 03:07:04;;;;;;;6.35;1.92;;;;;;;19.95;48.83;101389.00;5142904;27;20039;-61
2023/07/13 03:09:34;;;;;;;3.58;1.73;;;;;;;19.87;49.20;101384.88;5131975;27;20088;-61
2023/07/13 03:12:02;;;;;;;5.50;1.80;;;;;;;19.91;49.03;101385.97;5142054;27;20057;-61
2023/07/13 03:14:30;;;;;;;4.05;1.83;;;;;;;19.90;49.21;101394.44;5140167;27;20047;-61
2023/07/13 03:16:58;;;;;;;6.40;1.85;;;;;;;19.89;48.92;101385.44;5143103;27;20051;-61
2023/07/13 03:19:26;;;;;;;5.53;1.83;;;;;;;19.88;49.20;101389.25;5146580;27;20043;-60
2023/07/13 03:21:55;;;;;;;6.63;2.33;;;;;;;19.87;49.16;101390.34;5145418;27;20054;-61
2023/07/13 03:24:25;;;;;;;5.15;1.65;;;;;;;19.87;49.09;101393.06;5134896;28;20051;-61
2023/07/13 03:26:53;;;;;;;4.85;1.83;;;;;;;19.84;48.98;101393.59;5143633;27;20046;-61
2023/07/13 03:29:21;;;;;;;7.05;1.90;;;;;;;19.83;49.19;101403.69;5138574;27;20082;-61
2023/07/13 03:31:49;;;;;;;7.18;1.60;;;;;;;19.83;49.26;101405.59;5144315;27;20043;-60
2023/07/13 03:34:16;;;;;;;6.20;1.52;;;;;;;19.83;48.93;101408.34;5142232;28;20047;-60
2023/07/13 03:36:44;;;;;;;3.38;1.52;;;;;;;19.82;49.07;101414.88;5140746;27;20124;-61
2023/07/13 03:39:13;;;;;;;6.75;1.80;;;;;;;19.81;49.19;101416.78;5142559;28;20043;-61
2023/07/13 03:41:41;;;;;;;8.65;2.05;;;;;;;19.80;49.26;101415.16;5145366;27;20110;-61
2023/07/13 03:44:09;;;;;;;4.38;1.80;;;;;;;19.80;49.19;101417.06;5142660;27;20055;-61
2023/07/13 03:46:37;;;;;;;5.15;2.17;;;;;;;19.76;49.29;101411.31;5141317;27;20048;-61
2023/07/13 03:49:06;;;;;;;6.38;1.52;;;;;;;19.77;49.18;101417.59;5138400;27;20084;-61
2023/07/13 03:51:33;;;;;;;7.05;1.95;;;;;;;19.76;49.21;101422.22;5144334;27;20229;-61
2023/07/13 03:54:02;;;;;;;5.85;1.98;;;;;;;19.74;49.55;101413.50;5142622;28;20055;-61
2023/07/13 03:56:32;;;;;;;7.63;1.75;;;;;;;19.74;49.17;101424.41;5141303;27;20058;-60
2023/07/13 03:59:02;;;;;;;5.80;1.65;;;;;;;19.74;49.27;101418.94;5142762;27;20051;-61
2023/07/13 04:01:29;;;;;;;6.63;1.80;;;;;;;19.73;49.52;101422.78;5143036;27;20043;-61
2023/07/13 04:03:58;;;;;;;3.65;1.33;;;;;;;19.71;49.49;101416.75;5139150;27;20047;-61
2023/07/13 04:06:31;;;;;;;5.93;1.92;;;;;;;19.71;49.61;101433.13;5140492;27;20126;-61
2023/07/13 04:09:01;;;;;;;6.82;2.13;;;;;;;19.71;49.63;101432.31;5144135;27;20043;-61
2023/07/13 04:11:32;;;;;;;7.00;2.25;;;;;;;19.65;49.95;101426.03;5145883;27;20054;-60
2023/07/13 04:14:00;;;;;;;4.22;1.80;;;;;;;19.68;49.57;101430.94;5145876;27;20776;-60
2023/07/13 04:16:29;;;;;;;5.25;2.00;;;;;;;19.68;49.92;101430.94;5144096;27;20107;-60
2023/07/13 04:18:59;;;;;;;8.80;1.85;;;;;;;19.68;49.93;101435.56;5145672;27;20556;-60
2023/07/13 04:21:29;;;;;;;6.45;1.73;;;;;;;19.66;49.96;101441.28;5144786;27;20043;-59
2023/07/13 04:23:57;;;;;;;4.85;2.28;;;;;;;19.65;49.95;101438.84;5142520;27;20055;-60
2023/07/13 04:26:25;;;;;;;6.22;1.85;;;;;;;19.64;49.92;101448.91;5147516;27;20058;-60
2023/07/13 04:28:54;;;;;;;7.00;2.00;;;;;;;19.64;50.01;101440.75;5147212;27;20039;-60
2023/07/13 04:31:23;;;;;;;5.03;1.75;;;;;;;19.62;50.40;101439.38;5147956;27;20054;-61
2023/07/13 04:33:51;;;;;;;7.47;2.30;;;;;;;19.62;50.27;101447.56;5145610;27;20043;-60
2023/07/13 04:36:19;;;;;;;5.93;1.70;;;;;;;19.60;50.32;101444.28;5139534;27;20043;-60
2023/07/13 04:38:47;;;;;;;5.68;2.28;;;;;;;19.59;50.57;101451.63;5145427;27;20153;-61
2023/07/13 04:41:16;;;;;;;10.43;2.67;;;;;;;19.59;50.52;101453.53;5146669;27;20043;-61
2023/07/13 04:43:44;;;;;;;6.32;2.22;;;;;;;19.58;50.35;101458.16;5144268;27;20047;-61
2023/07/13 04:46:15;;;;;;;9.80;3.80;;;;;;;19.56;51.55;101452.16;5144342;27;20047;-63
2023/07/13 04:48:43;;;;;;;5.53;2.47;;;;;;;19.54;51.15;101456.25;5140319;27;20081;-63
2023/07/13 04:51:11;;;;;;;10.35;3.53;;;;;;;19.53;51.39;101457.34;5147321;27;20544;-62
2023/07/13 04:53:39;;;;;;;8.15;2.70;;;;;;;19.55;51.22;101460.63;5147532;27;20046;-64
2023/07/13 04:56:07;;;;;;;14.35;4.43;;;;;;;19.54;51.70;101462.50;5146783;27;20442;-60
2023/07/13 04:58:35;;;;;;;12.70;3.75;;;;;;;19.54;51.79;101467.97;5140469;27;20055;-61
2023/07/13 05:01:05;;;;;;;9.27;2.97;;;;;;;19.53;51.45;101462.78;5143675;27;20047;-61
2023/07/13 05:03:35;;;;;;;11.15;3.30;;;;;;;19.53;51.38;101460.88;5142466;27;20055;-61
2023/07/13 05:06:06;;;;;;;8.13;3.38;;;;;;;19.52;51.63;101461.97;5140311;27;20118;-61
2023/07/13 05:08:34;;;;;;;12.15;3.03;;;;;;;19.53;51.75;101465.50;5147353;27;20476;-60
2023/07/13 05:11:02;;;;;;;7.50;3.65;;;;;;;19.58;51.37;101466.34;5145621;27;20047;-60
2023/07/13 05:13:31;;;;;;;10.57;2.88;;;;;;;19.59;51.28;101478.91;5147079;27;20043;-61
2023/07/13 05:16:00;;;;;;;10.15;3.45;;;;;;;19.57;51.74;101478.34;5145140;27;20055;-60
2023/07/13 05:18:29;;;;;;;9.80;3.95;;;;;;;19.55;51.96;101483.25;5142819;27;20047;-61
2023/07/13 05:21:01;;;;;;;8.45;3.40;;;;;;;19.53;52.12;101482.69;5146974;27;20042;-62
2023/07/13 05:23:29;;;;;;;9.80;4.10;;;;;;;19.52;52.77;101486.50;5148708;27;20043;-63
2023/07/13 05:25:57;;;;;;;10.73;3.35;;;;;;;19.52;52.11;101485.69;5140484;27;20043;-62
2023/07/13 05:28:26;;;;;;;10.68;3.40;;;;;;;19.52;51.96;101491.13;5148405;27;20133;-62
2023/07/13 05:30:55;;;;;;;9.32;3.35;;;;;;;19.52;52.69;101486.50;5141826;27;20500;-64
2023/07/13 05:33:23;;;;;;;10.93;3.83;;;;;;;19.51;53.06;101490.28;5144470;27;20062;-61
2023/07/13 05:35:50;;;;;;;10.57;3.47;;;;;;;19.50;52.78;101494.91;5143377;27;20446;-62
2023/07/13 05:38:20;;;;;;;12.65;3.70;;;;;;;19.50;52.90;101491.38;5144118;27;20043;-61
2023/07/13 05:40:48;;;;;;;12.02;4.28;;;;;;;19.49;52.53;101487.00;4781099;27;10000133;-61
2023/07/13 05:43:16;;;;;;;12.18;4.30;;;;;;;19.50;53.11;101491.38;5143490;27;20099;-60
2023/07/13 05:45:44;;;;;;;13.88;4.30;;;;;;;19.50;53.13;101497.66;5143796;27;20047;-61
2023/07/13 05:48:11;;;;;;;12.40;3.83;;;;;;;19.52;53.22;101491.97;5139049;27;20047;-61
2023/07/13 05:50:39;;;;;;;14.73;4.88;;;;;;;19.52;53.06;101502.03;5139505;27;20043;-60
2023/07/13 05:53:07;;;;;;;17.30;4.75;;;;;;;19.52;53.18;101511.03;5141658;27;20043;-59
2023/07/13 05:55:36;;;;;;;13.10;4.13;;;;;;;19.50;53.05;101505.81;5141489;27;20051;-60
2023/07/13 05:58:04;;;;;;;9.45;3.47;;;;;;;19.50;53.76;101502.28;5139510;27;20051;-60
2023/07/13 06:00:32;;;;;;;9.05;3.53;;;;;;;19.49;53.93;101514.25;5142961;27;20390;-58
2023/07/13 06:02:59;;;;;;;12.30;3.83;;;;;;;19.48;53.59;101508.00;5138328;27;20040;-59
2023/07/13 06:05:28;;;;;;;12.10;4.18;;;;;;;19.46;53.53;101504.72;5142104;27;20488;-59
2023/07/13 06:07:56;;;;;;;14.27;4.70;;;;;;;19.50;53.58;101515.91;5139164;27;20073;-59
2023/07/13 06:10:24;;;;;;;9.82;3.45;;;;;;;19.63;54.54;101509.19;5143662;27;20054;-60
2023/07/13 06:12:53;;;;;;;11.60;4.22;;;;;;;19.90;53.46;101515.28;5137388;27;20043;-59
2023/07/13 06:15:21;;;;;;;14.73;3.85;;;;;;;19.72;53.67;101524.78;5147136;27;20050;-59
2023/07/13 06:17:49;;;;;;;11.90;3.95;;;;;;;19.68;53.87;101523.66;5143336;27;20046;-60
2023/07/13 06:20:17;;;;;;;11.25;3.85;;;;;;;19.69;53.56;101524.47;5143914;27;20499;-60
2023/07/13 06:22:44;;;;;;;6.60;3.17;;;;;;;19.68;53.27;101531.84;5145737;27;20119;-59
2023/07/13 06:25:12;;;;;;;9.90;4.20;;;;;;;19.67;53.22;101524.75;5145438;27;20516;-59
2023/07/13 06:27:40;;;;;;;10.43;4.00;;;;;;;19.66;53.43;101530.47;5142335;27;20094;-59
2023/07/13 06:30:11;;;;;;;17.25;4.88;;;;;;;19.65;53.30;101526.09;5144618;27;20038;-59
2023/07/13 06:32:38;;;;;;;9.80;3.83;;;;;;;19.65;53.31;101531.56;5144311;27;20115;-60
2023/07/13 06:35:12;;;;;;;10.35;4.85;;;;;;;19.64;53.56;101527.19;5140524;27;20071;-60
2023/07/13 06:37:40;;;;;;;14.77;4.70;;;;;;;19.63;53.97;101536.47;5142031;27;20050;-59
2023/07/13 06:40:09;;;;;;;13.85;4.03;;;;;;;19.62;54.56;101543.00;5145069;27;20043;-60
2023/07/13 06:42:38;;;;;;;13.10;5.05;;;;;;;19.60;54.36;101540.53;5140667;27;20072;-59
2023/07/13 06:45:07;;;;;;;14.73;5.18;;;;;;;19.60;54.22;101545.97;5141866;27;20047;-59
2023/07/13 06:47:36;;;;;;;13.07;5.45;;;;;;;19.60;54.41;101545.16;5142987;27;20345;-59
2023/07/13 06:50:04;;;;;;;8.30;4.38;;;;;;;19.61;54.23;101546.81;5145220;27;20046;-59
2023/07/13 06:52:32;;;;;;;9.65;3.80;;;;;;;19.61;53.93;101544.91;5145814;27;20545;-59
2023/07/13 06:55:00;;;;;;;13.65;5.38;;;;;;;19.62;53.81;101546.53;5145134;27;20043;-58
2023/07/13 06:57:27;;;;;;;14.88;5.65;;;;;;;19.62;53.76;101546.53;5142567;27;20039;-59
2023/07/13 06:59:55;;;;;;;10.52;4.50;;;;;;;19.75;53.44;101548.78;5144889;27;20062;-59
2023/07/13 07:02:23;;;;;;;11.02;4.55;;;;;;;19.73;53.71;101537.31;5144555;27;20047;-59
2023/07/13 07:04:54;;;;;;;9.68;3.85;;;;;;;19.73;53.66;101556.41;5143330;27;20054;-60
2023/07/13 07:07:24;;;;;;;12.80;5.20;;;;;;;19.78;53.44;101553.72;5138387;27;20081;-59
2023/07/13 07:09:52;;;;;;;10.45;4.50;;;;;;;19.74;54.02;101555.31;5145107;27;20454;-59
2023/07/13 07:12:20;;;;;;;8.10;4.43;;;;;;;19.72;53.84;101551.22;5140030;27;20047;-60
2023/07/13 07:14:48;;;;;;;8.90;3.85;;;;;;;19.79;54.56;101551.81;5144200;27;20389;-60
2023/07/13 07:17:16;;;;;;;9.77;3.92;;;;;;;19.75;53.61;101559.69;5144604;27;20062;-60
2023/07/13 07:19:43;;;;;;;9.07;3.53;;;;;;;19.72;54.03;101560.22;5140642;27;20047;-60
2023/07/13 07:22:13;;;;;;;9.13;3.70;;;;;;;19.78;53.74;101552.88;5145012;27;20035;-59
2023/07/13 07:24:40;;;;;;;11.88;4.63;;;;;;;19.73;54.14;101559.13;5144008;28;20051;-60
2023/07/13 07:27:08;;;;;;;10.50;3.90;;;;;;;19.74;54.10;101565.41;5142927;27;20065;-59
2023/07/13 07:29:39;;;;;;;11.55;3.95;;;;;;;19.74;53.96;101562.69;5142931;28;20082;-59
2023/07/13 07:32:15;;;;;;;14.02;3.80;;;;;;;19.82;53.87;101564.91;5143951;27;20058;-59
2023/07/13 07:35:03;;;;;;;7.40;3.55;;;;;;;19.77;54.18;101562.16;5138400;28;20147;-59
2023/07/13 07:37:32;;;;;;;8.43;3.63;;;;;;;19.76;53.77;101565.97;5144752;28;20122;-59
2023/07/13 07:40:03;;;;;;;14.60;4.65;;;;;;;19.76;53.56;101565.97;5142897;28;20062;-59
2023/07/13 07:42:34;;;;;;;11.98;4.32;;;;;;;19.75;53.78;101559.69;5145884;27;20051;-59
2023/07/13 07:45:02;;;;;;;9.32;3.85;;;;;;;19.90;53.52;101556.22;5146531;27;20131;-59
2023/07/13 07:47:30;;;;;;;10.60;3.80;;;;;;;19.81;53.84;101569.53;5150606;27;20130;-59
2023/07/13 07:49:57;;;;;;;6.78;3.28;;;;;;;19.81;53.85;101566.00;5151798;27;20072;-59
2023/07/13 07:52:25;;;;;;;12.48;4.03;;;;;;;20.03;54.50;101568.53;5146550;27;20355;-59
2023/07/13 07:54:54;;;;;;;8.18;3.85;;;;;;;20.00;53.71;101571.81;5147445;27;20442;-59
2023/07/13 07:57:42;;;;;;;12.77;3.78;;;;;;;19.97;53.58;101573.16;5149725;27;20053;-59
2023/07/13 08:00:14;;;;;;;9.90;3.70;;;;;;;19.99;53.82;101578.34;5144658;27;20104;-59
2023/07/13 08:02:46;;;;;;;10.75;4.53;;;;;;;19.96;53.97;101582.44;5150532;27;20043;-60
2023/07/13 08:05:17;;;;;;;7.75;2.80;;;;;;;19.94;53.96;101581.88;5149871;27;20084;-59
2023/07/13 08:07:47;;;;;;;9.30;3.53;;;;;;;20.03;53.65;101583.00;5145935;27;20537;-60
2023/07/13 08:10:16;;;;;;;10.02;3.35;;;;;;;19.97;53.82;101577.78;5147489;27;20077;-60
2023/07/13 08:12:44;;;;;;;9.52;4.10;;;;;;;19.95;53.88;101564.41;5148959;27;20051;-60
2023/07/13 08:15:32;;;;;;;10.10;3.30;;;;;;;19.99;54.21;101565.53;5144235;27;20115;-61
2023/07/13 08:18:00;;;;;;;10.63;3.03;;;;;;;19.98;54.13;101569.34;5147942;27;20062;-60
2023/07/13 08:20:28;;;;;;;8.77;3.47;;;;;;;19.98;54.26;101579.44;5145647;27;20039;-61
2023/07/13 08:22:55;;;;;;;5.05;2.53;;;;;;;19.98;54.13;101571.25;5145038;27;20043;-60
2023/07/13 08:25:25;;;;;;;9.43;3.30;;;;;;;20.13;54.51;101571.31;5148801;27;20091;-61
2023/07/13 08:27:52;;;;;;;7.18;3.05;;;;;;;20.08;54.29;101577.56;5147410;27;20043;-61
2023/07/13 08:30:20;;;;;;;8.93;3.03;;;;;;;20.36;53.85;101576.28;5146531;27;20047;-61
2023/07/13 08:32:49;;;;;;;9.85;3.53;;;;;;;20.26;54.32;101583.63;5142634;27;20376;-60
2023/07/13 08:35:17;;;;;;;10.00;3.60;;;;;;;20.22;53.99;101583.34;5139098;27;21350;-60
2023/07/13 08:37:44;;;;;;;5.55;2.95;;;;;;;20.24;53.92;101575.72;5148257;27;20065;-60
2023/07/13 08:40:13;;;;;;;9.40;3.45;;;;;;;20.25;53.70;101571.91;5146416;27;20051;-60
2023/07/13 08:42:47;;;;;;;9.13;3.60;;;;;;;20.15;53.94;101586.31;5141014;27;20112;-60
2023/07/13 08:45:21;;;;;;;8.35;2.92;;;;;;;20.14;54.28;101589.31;5144475;27;20047;-60
2023/07/13 08:47:54;;;;;;;10.60;2.90;;;;;;;20.15;54.30;101580.06;5146534;27;20354;-60
2023/07/13 08:50:26;;;;;;;8.07;2.95;;;;;;;20.18;53.99;101581.41;5144811;27;20205;-61
2023/07/13 08:52:57;;;;;;;8.43;3.05;;;;;;;20.16;54.61;101568.03;5149082;27;20047;-61
2023/07/13 08:55:31;;;;;;;6.00;3.15;;;;;;;20.19;54.10;101578.44;5148228;27;20047;-61
2023/07/13 08:58:04;;;;;;;8.30;3.15;;;;;;;20.17;54.27;101577.06;5146897;27;20039;-61
2023/07/13 09:00:53;;;;;;;11.82;3.40;;;;;;;20.38;53.94;101581.47;5143415;27;20054;-61
2023/07/13 09:03:24;;;;;;;6.68;3.30;;;;;;;20.29;53.85;101585.81;5147879;27;20043;-61
2023/07/13 09:05:55;;;;;;;10.02;3.50;;;;;;;20.36;53.87;101579.03;5145678;27;20054;-61
2023/07/13 09:08:55;;;;;;;7.55;2.47;;;;;;;20.25;54.02;101573.81;5143599;27;20058;-61
2023/07/13 09:11:45;;;;;;;8.73;3.38;;;;;;;20.27;53.91;101580.63;5141829;27;20039;-61
2023/07/13 09:14:35;;;;;;;8.20;2.58;;;;;;;20.27;53.95;101582.53;5145570;27;20103;-61
2023/07/13 09:17:05;;;;;;;6.22;2.67;;;;;;;20.20;53.70;101580.06;5146440;27;20468;-61
2023/07/13 09:19:35;;;;;;;6.05;2.30;;;;;;;20.25;53.70;101577.34;5140013;27;20043;-62
2023/07/13 09:22:10;;;;;;;7.40;2.53;;;;;;;20.23;53.73;101575.97;5146561;27;20041;-61
2023/07/13 09:24:42;;;;;;;9.13;2.50;;;;;;;20.29;54.19;101566.72;5144624;27;20047;-62
2023/07/13 09:27:17;;;;;;;6.65;2.17;;;;;;;20.28;53.92;101563.16;5143663;27;20080;-61
2023/07/13 09:29:50;;;;;;;9.00;3.08;;;;;;;20.29;53.71;101570.25;5145389;27;20039;-61
2023/07/13 09:32:22;;;;;;;10.18;3.03;;;;;;;20.33;53.95;101568.63;5142379;27;20043;-61
2023/07/13 09:34:54;;;;;;;6.53;2.60;;;;;;;20.30;53.56;101574.63;5147316;27;20054;-61
2023/07/13 09:37:24;;;;;;;8.52;2.10;;;;;;;20.28;53.54;101567.81;5146245;27;20130;-61
2023/07/13 09:39:55;;;;;;;10.45;2.67;;;;;;;20.31;53.61;101573.56;5145916;27;20050;-61
2023/07/13 09:42:23;;;;;;;7.93;2.50;;;;;;;20.32;53.64;101574.38;5145733;27;20419;-61
2023/07/13 09:44:57;;;;;;;9.23;2.90;;;;;;;20.27;53.79;101572.44;5143752;27;20047;-62
2023/07/13 09:47:27;;;;;;;6.43;2.22;;;;;;;20.32;53.57;101577.09;5143996;27;20043;-61
2023/07/13 09:49:58;;;;;;;7.35;2.45;;;;;;;20.27;53.79;101577.91;5143351;27;20040;-60
2023/07/13 09:52:41;;;;;;;8.13;2.25;;;;;;;20.26;53.75;101575.44;5144296;27;20070;-61
2023/07/13 09:55:25;;;;;;;5.60;2.03;;;;;;;20.25;53.68;101579.25;5143672;27;21108;-61
2023/07/13 09:57:53;;;;;;;6.10;2.20;;;;;;;20.25;53.78;101573.81;5145264;27;20047;-61
2023/07/13 10:00:28;;;;;;;7.78;2.55;;;;;;;20.26;53.83;101583.63;5145228;27;20047;-61
2023/07/13 10:03:04;;;;;;;5.35;2.60;;;;;;;20.39;53.84;101580.44;5144712;27;20509;-61
2023/07/13 10:05:41;;;;;;;10.80;3.05;;;;;;;20.54;53.78;101583.19;5143072;27;20043;-61
2023/07/13 10:08:18;;;;;;;8.02;2.10;;;;;;;20.44;53.70;101577.72;4790104;27;10000356;-60
2023/07/13 10:10:46;;;;;;;6.53;2.60;;;;;;;20.43;53.80;101579.63;5140889;27;20043;-60
2023/07/13 10:13:27;;;;;;;8.60;2.38;;;;;;;20.51;53.77;101577.44;5140032;27;20047;-60
2023/07/13 10:15:58;;;;;;;6.10;1.73;;;;;;;20.49;53.72;101579.63;5145074;27;20457;-61
2023/07/13 10:18:27;;;;;;;7.38;2.35;;;;;;;20.50;53.74;101582.09;5141027;27;20492;-61
2023/07/13 10:21:00;;;;;;;10.52;2.67;;;;;;;20.51;53.74;101578.25;5143495;27;20043;-61
2023/07/13 10:23:52;;;;;;;8.75;2.28;;;;;;;20.57;53.92;101577.19;5134231;27;20055;-61
2023/07/13 10:26:24;;;;;;;7.13;2.47;;;;;;;20.61;54.03;101578.28;5144270;27;20046;-61
2023/07/13 10:28:56;;;;;;;9.07;2.30;;;;;;;20.63;53.98;101592.50;5145003;27;20078;-61
2023/07/13 10:31:25;;;;;;;7.78;2.00;;;;;;;20.62;53.58;101590.84;5137036;27;20044;-61
2023/07/13 10:33:53;;;;;;;9.93;2.50;;;;;;;20.61;53.16;101589.22;5144170;27;20059;-60
2023/07/13 10:36:31;;;;;;;6.95;2.40;;;;;;;20.66;53.11;101581.03;5142191;27;20054;-61
2023/07/13 10:39:03;;;;;;;5.20;2.00;;;;;;;20.70;53.07;101589.50;5136714;27;20469;-61
2023/07/13 10:41:36;;;;;;;9.13;2.38;;;;;;;20.71;53.28;101583.75;5140653;27;20043;-60
2023/07/13 10:44:07;;;;;;;6.47;2.10;;;;;;;20.71;53.42;101585.66;5132355;27;20048;-61
2023/07/13 10:46:36;;;;;;;5.85;2.33;;;;;;;20.70;53.35;101579.38;5129785;27;20044;-61
2023/07/13 10:49:09;;;;;;;8.27;1.90;;;;;;;20.77;53.31;101581.84;5135190;27;20043;-61
2023/07/13 10:51:37;;;;;;;9.25;2.17;;;;;;;20.77;52.99;101600.97;5140054;27;20054;-60
2023/07/13 10:54:17;;;;;;;6.35;2.20;;;;;;;20.73;52.40;101600.69;5132745;27;20100;-60
2023/07/13 10:56:50;;;;;;;7.00;2.35;;;;;;;20.74;52.62;101596.06;5144354;27;20054;-60
2023/07/13 10:59:20;;;;;;;9.10;2.60;;;;;;;20.74;52.35;101596.88;5147445;27;20142;-60
2023/07/13 11:01:56;;;;;;;4.95;1.70;;;;;;;20.76;52.60;101591.97;5142901;27;20080;-61
2023/07/13 11:04:25;;;;;;;6.72;1.90;;;;;;;20.77;52.72;101598.25;5146410;27;20078;-61
2023/07/13 11:06:59;;;;;;;7.82;2.35;;;;;;;20.77;52.73;101599.06;5147027;27;20039;-61
2023/07/13 11:09:39;;;;;;;6.53;2.25;;;;;;;20.76;52.53;101588.41;5142382;27;20663;-61
2023/07/13 11:12:14;;;;;;;4.90;1.73;;;;;;;20.80;52.32;101594.97;5146915;27;20055;-60
2023/07/13 11:15:10;;;;;;;9.23;2.13;;;;;;;20.80;52.36;101592.25;5149279;27;20043;-62
2023/07/13 11:17:49;;;;;;;4.75;2.40;;;;;;;20.82;52.24;101597.41;5135395;27;20110;-62
2023/07/13 11:20:24;;;;;;;4.78;2.22;;;;;;;20.84;51.95;101595.22;5142749;27;20051;-61
2023/07/13 11:23:07;;;;;;;7.50;2.42;;;;;;;20.86;52.13;101601.22;5140023;27;20047;-61
2023/07/13 11:25:37;;;;;;;4.78;1.77;;;;;;;20.86;52.04;101598.50;5141367;27;20040;-61
2023/07/13 11:28:14;;;;;;;6.38;2.63;;;;;;;20.90;52.49;101585.94;5157039;27;20054;-61
2023/07/13 11:30:46;;;;;;;5.13;2.10;;;;;;;20.88;52.42;101591.66;5142003;28;20131;-61
2023/07/13 11:33:19;;;;;;;6.53;3.08;;;;;;;20.87;52.43;101583.75;5142881;28;20376;-61
2023/07/13 11:35:58;;;;;;;6.90;1.90;;;;;;;20.89;52.42;101587.03;5141001;28;20043;-61
2023/07/13 11:38:33;;;;;;;6.78;2.38;;;;;;;20.95;52.30;101585.94;5142756;27;20055;-60